createdAt,value
2023-02-08T00:00:58.940Z,16.03
2023-02-08T00:03:28.160Z,16.00
2023-02-08T00:05:55.181Z,15.47
2023-02-08T00:08:22.205Z,15.23
2023-02-08T00:10:50.319Z,16.00
2023-02-08T00:13:17.813Z,16.53
2023-02-08T00:15:46.935Z,16.73
2023-02-08T00:18:14.844Z,15.07
2023-02-08T00:20:43.232Z,15.50
2023-02-08T00:23:11.448Z,15.87
2023-02-08T00:25:39.853Z,15.27
2023-02-08T00:28:09.485Z,15.43
2023-02-08T00:30:36.666Z,16.13
2023-02-08T00:33:04.726Z,15.73
2023-02-08T00:35:32.095Z,15.20
2023-02-08T00:37:59.166Z,15.07
2023-02-08T00:40:27.038Z,14.40
2023-02-08T00:42:54.150Z,14.83
2023-02-08T00:45:21.343Z,15.90
2023-02-08T00:47:48.339Z,16.97
2023-02-08T00:50:15.516Z,15.83
2023-02-08T00:52:42.515Z,16.00
2023-02-08T00:55:09.659Z,15.70
2023-02-08T00:57:36.773Z,17.47
2023-02-08T01:00:06.241Z,17.07
2023-02-08T01:02:33.629Z,17.00
2023-02-08T01:05:00.743Z,16.10
2023-02-08T01:07:27.840Z,15.90
2023-02-08T01:09:54.849Z,15.33
2023-02-08T01:12:21.854Z,15.43
2023-02-08T01:14:49.272Z,15.30
2023-02-08T01:17:16.348Z,16.00
2023-02-08T01:19:43.358Z,15.20
2023-02-08T01:22:10.379Z,13.43
2023-02-08T01:24:37.432Z,14.83
2023-02-08T01:27:04.644Z,14.77
2023-02-08T01:29:31.714Z,13.67
2023-02-08T01:31:58.781Z,15.10
2023-02-08T01:34:25.855Z,14.93
2023-02-08T01:36:52.877Z,14.37
2023-02-08T01:39:19.961Z,14.73
2023-02-08T01:41:47.205Z,14.07
2023-02-08T01:44:14.149Z,15.30
2023-02-08T01:46:48.777Z,14.50
2023-02-08T01:49:30.308Z,13.17
2023-02-08T01:52:19.249Z,14.37
2023-02-08T01:55:14.122Z,13.73
2023-02-08T01:57:43.107Z,14.13
2023-02-08T02:00:17.894Z,14.03
2023-02-08T02:02:47.856Z,14.47
2023-02-08T02:05:17.497Z,13.10
2023-02-08T02:07:44.995Z,14.60
2023-02-08T02:10:25.435Z,15.10
2023-02-08T02:12:55.136Z,13.60
2023-02-08T02:15:22.404Z,13.90
2023-02-08T02:17:49.813Z,14.23
2023-02-08T02:20:29.399Z,14.37
2023-02-08T02:23:20.808Z,14.20
2023-02-08T02:25:59.769Z,13.07
2023-02-08T02:28:52.883Z,14.20
2023-02-08T02:31:40.564Z,13.77
2023-02-08T02:35:05.475Z,14.20
2023-02-08T02:38:08.788Z,13.93
2023-02-08T02:40:50.399Z,13.83
2023-02-08T02:43:46.310Z,12.10
2023-02-08T02:46:35.295Z,13.87
2023-02-08T02:50:07.127Z,11.83
2023-02-08T02:53:05.928Z,13.07
2023-02-08T02:55:40.726Z,12.90
2023-02-08T02:58:10.763Z,12.57
2023-02-08T03:00:38.382Z,14.70
2023-02-08T03:03:07.085Z,12.23
2023-02-08T03:05:34.698Z,12.70
2023-02-08T03:08:39.439Z,13.27
2023-02-08T03:11:31.720Z,13.53
2023-02-08T03:14:36.691Z,12.53
2023-02-08T03:17:27.668Z,12.73
2023-02-08T03:20:16.598Z,13.33
2023-02-08T03:23:10.520Z,12.97
2023-02-08T03:25:58.022Z,12.43
2023-02-08T03:28:28.615Z,13.93
2023-02-08T03:31:21.490Z,13.43
2023-02-08T03:34:13.217Z,12.50
2023-02-08T03:36:55.816Z,13.90
2023-02-08T03:39:28.895Z,13.30
2023-02-08T03:42:01.257Z,13.87
2023-02-08T03:44:41.813Z,13.43
2023-02-08T03:47:19.663Z,13.27
2023-02-08T03:49:54.128Z,13.70
2023-02-08T03:52:23.165Z,14.30
2023-02-08T03:55:01.209Z,14.23
2023-02-08T03:57:38.379Z,13.97
2023-02-08T04:00:16.303Z,14.03
2023-02-08T04:03:09.228Z,14.47
2023-02-08T04:05:37.226Z,13.37
2023-02-08T04:08:04.732Z,12.87
2023-02-08T04:10:31.907Z,13.63
2023-02-08T04:12:59.282Z,14.43
2023-02-08T04:15:27.437Z,13.17
2023-02-08T04:17:55.074Z,12.77
2023-02-08T04:20:22.263Z,13.10
2023-02-08T04:22:49.847Z,13.50
2023-02-08T04:25:17.102Z,12.27
2023-02-08T04:27:44.157Z,12.43
2023-02-08T04:30:12.387Z,12.27
2023-02-08T04:32:39.404Z,13.30
2023-02-08T04:35:07.196Z,12.70
2023-02-08T04:37:34.526Z,12.93
2023-02-08T04:40:01.661Z,12.73
2023-02-08T04:42:28.827Z,13.63
2023-02-08T04:44:55.972Z,12.63
2023-02-08T04:47:23.347Z,13.70
2023-02-08T04:49:50.348Z,13.40
2023-02-08T04:52:17.358Z,13.73
2023-02-08T04:54:44.402Z,13.13
2023-02-08T04:57:15.355Z,13.93
2023-02-08T04:59:42.575Z,14.23
2023-02-08T05:02:10.004Z,13.73
2023-02-08T05:04:37.021Z,11.87
2023-02-08T05:07:04.150Z,13.97
2023-02-08T05:09:32.649Z,13.67
2023-02-08T05:11:59.663Z,14.03
2023-02-08T05:14:26.679Z,13.67
2023-02-08T05:16:53.717Z,14.97
2023-02-08T05:19:20.683Z,13.80
2023-02-08T05:21:47.697Z,14.87
2023-02-08T05:24:14.749Z,14.60
2023-02-08T05:26:42.116Z,14.37
2023-02-08T05:29:09.118Z,14.87
2023-02-08T05:31:36.534Z,14.83
2023-02-08T05:34:03.987Z,15.07
2023-02-08T05:36:31.038Z,16.03
2023-02-08T05:38:58.110Z,14.70
2023-02-08T05:41:25.191Z,16.40
2023-02-08T05:43:52.249Z,16.23
2023-02-08T05:46:19.318Z,16.10
2023-02-08T05:48:46.485Z,15.77
2023-02-08T05:51:13.520Z,16.27
2023-02-08T05:53:40.600Z,16.13
2023-02-08T05:56:07.816Z,16.70
2023-02-08T05:58:35.258Z,17.63
2023-02-08T06:01:07.389Z,18.57
2023-02-08T06:03:34.367Z,18.97
2023-02-08T06:06:01.768Z,18.90
2023-02-08T06:08:28.868Z,18.23
2023-02-08T06:10:55.973Z,19.20
2023-02-08T06:13:23.153Z,19.57
2023-02-08T06:15:50.285Z,19.87
2023-02-08T06:18:18.527Z,18.80
2023-02-08T06:20:45.555Z,20.67
2023-02-08T06:23:12.654Z,19.40
2023-02-08T06:25:39.719Z,20.00
2023-02-08T06:28:08.916Z,20.43
2023-02-08T06:30:36.799Z,21.17
2023-02-08T06:33:04.851Z,20.80
2023-02-08T06:35:32.772Z,20.60
2023-02-08T06:37:59.917Z,19.43
2023-02-08T06:40:27.192Z,21.43
2023-02-08T06:42:54.189Z,20.53
2023-02-08T06:45:21.185Z,21.83
2023-02-08T06:47:48.185Z,20.83
2023-02-08T06:50:15.304Z,19.10
2023-02-08T06:52:42.352Z,24.20
2023-02-08T06:55:09.334Z,20.63
2023-02-08T06:57:36.394Z,20.80
2023-02-08T07:00:05.334Z,21.70
2023-02-08T07:02:32.776Z,20.77
2023-02-08T07:04:59.782Z,21.87
2023-02-08T07:07:28.070Z,18.73
2023-02-08T07:09:55.096Z,18.77
2023-02-08T07:12:22.106Z,19.20
2023-02-08T07:14:49.232Z,20.67
2023-02-08T07:17:16.328Z,20.73
2023-02-08T07:19:43.335Z,19.30
2023-02-08T07:22:10.377Z,19.50
2023-02-08T07:24:40.651Z,18.67
2023-02-08T07:27:10.593Z,19.87
2023-02-08T07:29:38.350Z,20.67
2023-02-08T07:32:07.413Z,19.57
2023-02-08T07:34:37.458Z,20.03
2023-02-08T07:37:04.848Z,18.97
2023-02-08T07:39:32.142Z,19.27
2023-02-08T07:41:59.891Z,18.80
2023-02-08T07:44:26.988Z,20.13
2023-02-08T07:46:54.049Z,19.97
2023-02-08T07:49:21.152Z,17.97
2023-02-08T07:51:48.176Z,19.67
2023-02-08T07:54:15.793Z,19.80
2023-02-08T07:56:42.858Z,20.13
2023-02-08T07:59:09.908Z,18.07
2023-02-08T08:01:37.014Z,18.13
2023-02-08T08:04:04.386Z,19.73
2023-02-08T08:06:31.408Z,18.40
2023-02-08T08:08:58.652Z,19.37
2023-02-08T08:11:25.711Z,18.43
2023-02-08T08:13:53.111Z,15.63
2023-02-08T08:16:20.826Z,12.87
2023-02-08T08:18:48.152Z,12.53
2023-02-08T08:21:16.756Z,12.10
2023-02-08T08:23:44.328Z,10.30
2023-02-08T08:26:16.162Z,11.80
2023-02-08T08:28:43.791Z,11.87
2023-02-08T08:31:16.744Z,11.33
2023-02-08T08:33:44.286Z,12.20
2023-02-08T08:36:11.510Z,12.27
2023-02-08T08:38:39.382Z,12.07
2023-02-08T08:41:12.650Z,12.03
2023-02-08T08:43:39.706Z,11.77
2023-02-08T08:46:10.629Z,12.43
2023-02-08T08:48:40.734Z,12.57
2023-02-08T08:51:07.755Z,12.77
2023-02-08T08:53:37.087Z,13.90
2023-02-08T08:56:05.723Z,12.03
2023-02-08T08:58:33.105Z,12.87
2023-02-08T09:01:00.589Z,17.17
2023-02-08T09:03:29.017Z,14.93
2023-02-08T09:05:56.909Z,16.07
2023-02-08T09:08:24.200Z,17.50
2023-02-08T09:10:51.204Z,17.13
2023-02-08T09:13:21.855Z,17.07
2023-02-08T09:15:49.922Z,19.07
2023-02-08T09:18:17.066Z,18.50
2023-02-08T09:20:44.475Z,17.90
2023-02-08T09:23:12.783Z,18.20
2023-02-08T09:25:40.174Z,17.60
2023-02-08T09:28:07.257Z,17.90
2023-02-08T09:30:34.295Z,17.73
2023-02-08T09:33:01.319Z,18.43
2023-02-08T09:35:28.373Z,19.27
2023-02-08T09:37:58.171Z,18.03
2023-02-08T09:40:36.031Z,17.37
2023-02-08T09:43:44.576Z,17.87
2023-02-08T09:46:36.025Z,17.13
2023-02-08T09:49:09.561Z,18.37
2023-02-08T09:51:41.902Z,17.50
2023-02-08T09:54:29.839Z,17.97
2023-02-08T09:57:01.511Z,18.57
2023-02-08T09:59:32.775Z,18.77
2023-02-08T10:02:27.393Z,18.17
2023-02-08T10:05:00.242Z,17.57
2023-02-08T10:07:28.978Z,17.20
2023-02-08T10:10:02.260Z,18.03
2023-02-08T10:12:43.580Z,16.97
2023-02-08T10:15:16.412Z,16.23
2023-02-08T10:18:19.596Z,15.53
2023-02-08T10:21:24.793Z,15.13
2023-02-08T10:24:22.140Z,15.67
2023-02-08T10:27:16.101Z,15.60
2023-02-08T10:30:24.925Z,14.33
2023-02-08T10:33:02.975Z,14.17
2023-02-08T10:35:39.196Z,13.90
2023-02-08T10:38:31.935Z,12.63
2023-02-08T10:41:07.938Z,13.53
2023-02-08T10:43:45.993Z,14.40
2023-02-08T10:46:35.602Z,14.83
2023-02-08T10:49:31.946Z,13.83
2023-02-08T10:51:58.989Z,15.00
2023-02-08T10:54:26.032Z,15.23
2023-02-08T10:57:12.985Z,14.93
2023-02-08T10:59:51.176Z,15.67
2023-02-08T11:02:26.814Z,14.77
2023-02-08T11:05:12.773Z,13.97
2023-02-08T11:07:39.942Z,14.10
2023-02-08T11:10:16.130Z,13.03
2023-02-08T11:13:14.908Z,12.70
2023-02-08T11:15:52.707Z,13.43
2023-02-08T11:18:37.808Z,12.97
2023-02-08T11:21:20.853Z,13.00
2023-02-08T11:23:55.571Z,13.10
2023-02-08T11:26:33.543Z,12.00
2023-02-08T11:29:27.593Z,12.53
2023-02-08T11:32:02.739Z,12.30
2023-02-08T11:34:38.529Z,12.00
2023-02-08T11:37:25.941Z,13.07
2023-02-08T11:40:01.316Z,14.67
2023-02-08T11:42:35.957Z,15.77
2023-02-08T11:45:04.861Z,14.07
2023-02-08T11:47:37.482Z,16.87
2023-02-08T11:50:08.278Z,14.53
2023-02-08T11:52:41.429Z,14.60
2023-02-08T11:55:16.748Z,12.60
2023-02-08T11:58:17.991Z,10.53
2023-02-08T12:01:05.017Z,9.37
2023-02-08T12:03:38.802Z,8.80
2023-02-08T12:06:30.390Z,6.90
2023-02-08T12:09:03.124Z,7.80
2023-02-08T12:11:43.437Z,7.70
2023-02-08T12:14:40.949Z,7.13
2023-02-08T12:17:26.872Z,7.18
2023-02-08T12:20:30.591Z,6.77
2023-02-08T12:23:43.375Z,7.53
2023-02-08T12:26:31.000Z,7.47
2023-02-08T12:29:33.134Z,7.77
2023-02-08T12:32:11.369Z,7.97
2023-02-08T12:35:41.432Z,8.30
2023-02-08T12:38:54.531Z,8.43
2023-02-08T12:42:03.744Z,7.10
2023-02-08T12:44:54.144Z,8.07
2023-02-08T12:48:04.035Z,6.97
2023-02-08T12:50:56.129Z,6.23
2023-02-08T12:53:54.726Z,6.27
2023-02-08T12:56:29.703Z,5.60
2023-02-08T12:59:11.894Z,4.43
2023-02-08T13:01:47.294Z,4.23
2023-02-08T13:04:23.165Z,3.70
2023-02-08T13:07:08.770Z,4.27
2023-02-08T13:09:44.424Z,4.70
2023-02-08T13:12:38.253Z,4.23
2023-02-08T13:15:30.674Z,3.87
2023-02-08T13:18:12.195Z,4.33
2023-02-08T13:20:53.677Z,3.30
2023-02-08T13:23:38.449Z,3.53
2023-02-08T13:26:31.735Z,3.23
2023-02-08T13:29:02.738Z,4.27
2023-02-08T13:31:39.026Z,4.10
2023-02-08T13:34:28.079Z,3.93
2023-02-08T13:37:03.641Z,3.97
2023-02-08T13:39:45.599Z,3.73
2023-02-08T13:42:48.484Z,3.50
2023-02-08T13:45:39.564Z,3.60
2023-02-08T13:48:14.395Z,3.83
2023-02-08T13:50:54.296Z,4.00
2023-02-08T13:53:39.890Z,3.60
2023-02-08T13:56:12.401Z,4.10
2023-02-08T13:58:39.492Z,4.17
2023-02-08T14:01:15.235Z,4.23
2023-02-08T14:03:42.508Z,3.83
2023-02-08T14:06:28.131Z,4.80
2023-02-08T14:09:26.905Z,5.27
2023-02-08T14:12:03.577Z,4.90
2023-02-08T14:14:38.572Z,5.13
2023-02-08T14:17:05.471Z,6.00
2023-02-08T14:19:36.610Z,5.97
2023-02-08T14:22:17.284Z,5.20
2023-02-08T14:25:00.527Z,5.73
2023-02-08T14:27:50.694Z,5.87
2023-02-08T14:30:17.597Z,5.00
2023-02-08T14:33:08.695Z,5.73
2023-02-08T14:35:50.586Z,5.67
2023-02-08T14:38:20.769Z,6.20
2023-02-08T14:40:55.124Z,5.37
2023-02-08T14:43:37.991Z,6.27
2023-02-08T14:46:39.179Z,6.20
2023-02-08T14:49:15.904Z,6.20
2023-02-08T14:51:56.579Z,6.57
2023-02-08T14:54:39.825Z,6.47
2023-02-08T14:57:28.124Z,6.50
2023-02-08T14:59:59.074Z,6.80
2023-02-08T15:02:37.177Z,6.93
2023-02-08T15:05:09.897Z,7.43
2023-02-08T15:07:57.432Z,6.83
2023-02-08T15:10:27.085Z,7.37
2023-02-08T15:13:00.680Z,7.60
2023-02-08T15:15:41.586Z,7.07
2023-02-08T15:18:20.509Z,7.63
2023-02-08T15:21:03.633Z,7.43
2023-02-08T15:23:30.980Z,7.73
2023-02-08T15:26:19.676Z,7.80
2023-02-08T15:28:46.854Z,8.00
2023-02-08T15:31:19.250Z,8.47
2023-02-08T15:33:47.470Z,7.67
2023-02-08T15:36:24.650Z,8.90
2023-02-08T15:38:52.067Z,8.03
2023-02-08T15:41:34.373Z,8.53
2023-02-08T15:44:30.130Z,8.47
2023-02-08T15:47:04.332Z,8.00
2023-02-08T15:49:43.589Z,8.30
2023-02-08T15:52:19.536Z,8.87
2023-02-08T15:54:47.222Z,8.47
2023-02-08T15:57:38.753Z,8.67
2023-02-08T16:00:13.239Z,8.43
2023-02-08T16:02:41.289Z,8.57
2023-02-08T16:05:26.819Z,9.10
2023-02-08T16:07:54.696Z,8.90
2023-02-08T16:10:46.637Z,8.37
2023-02-08T16:13:30.314Z,8.63
2023-02-08T16:16:20.300Z,9.20
2023-02-08T16:18:58.662Z,9.83
2023-02-08T16:21:25.523Z,9.07
2023-02-08T16:23:56.714Z,9.50
2023-02-08T16:26:32.270Z,9.23
2023-02-08T16:29:02.807Z,9.70
2023-02-08T16:31:33.303Z,9.60
2023-02-08T16:34:07.658Z,10.90
2023-02-08T16:36:40.535Z,9.37
2023-02-08T16:39:19.482Z,10.40
2023-02-08T16:42:06.376Z,9.50
2023-02-08T16:45:23.535Z,10.43
2023-02-08T16:47:58.378Z,12.07
2023-02-08T16:50:28.482Z,11.73
2023-02-08T16:53:04.116Z,10.83
2023-02-08T16:55:36.364Z,10.80
2023-02-08T16:58:03.456Z,10.47
2023-02-08T17:00:33.322Z,10.77
2023-02-08T17:03:01.258Z,10.47
2023-02-08T17:05:35.261Z,11.03
2023-02-08T17:08:09.952Z,10.40
2023-02-08T17:10:38.093Z,9.63
2023-02-08T17:13:19.753Z,11.43
2023-02-08T17:15:49.587Z,11.13
2023-02-08T17:18:16.746Z,9.77
2023-02-08T17:20:44.115Z,11.53
2023-02-08T17:23:11.719Z,10.57
2023-02-08T17:25:39.297Z,11.90
2023-02-08T17:28:14.380Z,12.37
2023-02-08T17:30:43.753Z,11.37
2023-02-08T17:33:18.298Z,11.07
2023-02-08T17:35:51.405Z,11.77
2023-02-08T17:38:20.085Z,10.93
2023-02-08T17:40:48.021Z,10.73
2023-02-08T17:43:15.146Z,11.30
2023-02-08T17:45:43.847Z,11.30
2023-02-08T17:48:13.530Z,12.50
2023-02-08T17:50:47.777Z,11.70
2023-02-08T17:53:15.989Z,11.97
2023-02-08T17:55:47.222Z,13.10
2023-02-08T17:58:14.398Z,11.57
2023-02-08T18:00:41.462Z,12.03
2023-02-08T18:03:08.638Z,13.33
2023-02-08T18:05:36.951Z,12.40
2023-02-08T18:08:04.076Z,11.83
2023-02-08T18:10:31.152Z,12.10
2023-02-08T18:12:59.087Z,12.97
2023-02-08T18:15:26.069Z,12.70
2023-02-08T18:17:53.156Z,12.17
2023-02-08T18:20:20.578Z,13.10
2023-02-08T18:22:47.690Z,13.70
2023-02-08T18:25:16.144Z,14.03
2023-02-08T18:27:43.520Z,14.83
2023-02-08T18:30:12.394Z,13.73
2023-02-08T18:32:39.867Z,14.03
2023-02-08T18:35:08.797Z,14.27
2023-02-08T18:37:37.659Z,14.90
2023-02-08T18:40:07.631Z,15.10
2023-02-08T18:42:36.335Z,14.77
2023-02-08T18:45:06.928Z,15.57
2023-02-08T18:47:36.533Z,16.10
2023-02-08T18:50:04.055Z,16.10
2023-02-08T18:52:31.721Z,15.50
2023-02-08T18:54:58.938Z,15.50
2023-02-08T18:57:25.942Z,17.17
2023-02-08T18:59:54.300Z,15.90
2023-02-08T19:02:23.061Z,16.07
2023-02-08T19:04:50.219Z,17.40
2023-02-08T19:07:17.216Z,15.90
2023-02-08T19:09:44.344Z,17.07
2023-02-08T19:12:15.666Z,17.00
2023-02-08T19:14:43.713Z,16.57
2023-02-08T19:17:13.581Z,16.70
2023-02-08T19:19:41.991Z,21.87
2023-02-08T19:22:09.551Z,20.67
2023-02-08T19:24:36.618Z,20.20
2023-02-08T19:27:03.985Z,19.03
2023-02-08T19:29:32.682Z,19.67
2023-02-08T19:31:59.748Z,19.73
2023-02-08T19:34:26.768Z,19.13
2023-02-08T19:36:54.862Z,17.73
2023-02-08T19:39:26.149Z,18.10
2023-02-08T19:41:54.680Z,17.83
2023-02-08T19:44:22.806Z,18.13
2023-02-08T19:46:53.952Z,18.80
2023-02-08T19:49:25.921Z,17.23
2023-02-08T19:51:53.543Z,18.17
2023-02-08T19:54:21.478Z,17.83
2023-02-08T19:56:50.409Z,17.27
2023-02-08T19:59:27.722Z,16.50
2023-02-08T20:01:55.638Z,17.93
2023-02-08T20:04:23.615Z,17.83
2023-02-08T20:06:53.727Z,18.60
2023-02-08T20:09:21.304Z,19.13
2023-02-08T20:11:57.356Z,18.63
2023-02-08T20:14:31.137Z,17.50
2023-02-08T20:16:58.801Z,18.23
2023-02-08T20:19:26.349Z,19.47
2023-02-08T20:21:53.641Z,18.97
2023-02-08T20:24:21.496Z,19.83
2023-02-08T20:26:49.327Z,17.73
2023-02-08T20:29:17.241Z,18.10
2023-02-08T20:31:47.703Z,16.63
2023-02-08T20:34:19.001Z,18.93
2023-02-08T20:37:04.556Z,19.20
2023-02-08T20:39:34.826Z,19.57
2023-02-08T20:42:01.839Z,19.47
2023-02-08T20:44:28.863Z,17.47
2023-02-08T20:46:56.007Z,17.23
2023-02-08T20:49:25.718Z,19.10
2023-02-08T20:51:55.831Z,17.83
2023-02-08T20:54:24.812Z,18.43
2023-02-08T20:56:53.816Z,18.50
2023-02-08T20:59:21.276Z,17.97
2023-02-08T21:01:48.568Z,20.47
2023-02-08T21:04:17.199Z,19.07
2023-02-08T21:06:46.246Z,19.60
2023-02-08T21:09:15.952Z,20.83
2023-02-08T21:11:44.097Z,19.27
2023-02-08T21:14:18.559Z,19.10
2023-02-08T21:16:52.444Z,19.63
2023-02-08T21:19:20.845Z,19.27
2023-02-08T21:21:56.997Z,19.43
2023-02-08T21:24:24.811Z,18.13
2023-02-08T21:26:56.580Z,18.57
2023-02-08T21:29:24.646Z,18.97
2023-02-08T21:31:54.148Z,20.07
2023-02-08T21:34:21.652Z,18.87
2023-02-08T21:36:48.802Z,19.33
2023-02-08T21:39:15.785Z,18.80
2023-02-08T21:41:42.808Z,18.53
2023-02-08T21:44:10.974Z,19.47
2023-02-08T21:46:38.140Z,19.50
2023-02-08T21:49:23.755Z,20.33
2023-02-08T21:52:09.884Z,19.63
2023-02-08T21:54:43.036Z,19.73
2023-02-08T21:57:20.797Z,19.70
2023-02-08T21:59:51.201Z,22.07
2023-02-08T22:02:25.909Z,20.77
2023-02-08T22:04:55.356Z,22.03
2023-02-08T22:07:23.616Z,21.57
2023-02-08T22:09:51.276Z,22.83
2023-02-08T22:12:21.052Z,23.93
2023-02-08T22:14:49.516Z,23.57
2023-02-08T22:17:17.017Z,22.67
2023-02-08T22:19:44.299Z,23.23
2023-02-08T22:22:12.441Z,23.70
2023-02-08T22:24:39.734Z,22.47
2023-02-08T22:27:06.845Z,23.23
2023-02-08T22:29:34.240Z,23.97
2023-02-08T22:32:01.581Z,23.60
2023-02-08T22:34:29.113Z,25.93
2023-02-08T22:36:56.164Z,24.73
2023-02-08T22:39:23.566Z,26.60
2023-02-08T22:41:50.668Z,25.07
2023-02-08T22:44:17.730Z,25.23
2023-02-08T22:46:44.891Z,24.93
2023-02-08T22:49:12.136Z,25.50
2023-02-08T22:51:39.164Z,25.10
2023-02-08T22:54:06.323Z,25.30
2023-02-08T22:56:33.445Z,25.07
2023-02-08T22:59:00.815Z,26.20
2023-02-08T23:01:28.654Z,26.20
2023-02-08T23:03:55.801Z,24.33
2023-02-08T23:06:22.843Z,26.13
2023-02-08T23:08:50.560Z,25.00
2023-02-08T23:11:18.370Z,24.77
2023-02-08T23:13:45.453Z,25.33
2023-02-08T23:16:15.157Z,26.67
2023-02-08T23:18:43.004Z,26.27
2023-02-08T23:21:15.546Z,25.80
2023-02-08T23:23:44.010Z,26.47
2023-02-08T23:26:15.243Z,26.60
2023-02-08T23:28:42.389Z,27.47
2023-02-08T23:31:12.544Z,28.97
2023-02-08T23:33:40.022Z,27.43
2023-02-08T23:36:11.285Z,27.13
2023-02-08T23:38:39.292Z,26.93
2023-02-08T23:41:10.872Z,26.10
2023-02-08T23:43:38.722Z,27.60
2023-02-08T23:46:12.049Z,27.13
2023-02-08T23:48:39.474Z,29.23
2023-02-08T23:51:08.050Z,27.70
2023-02-08T23:53:37.114Z,26.70
2023-02-08T23:56:10.287Z,25.27
2023-02-08T23:58:37.686Z,27.67
